createdAt,value
2019-02-15T00:01:25.395Z,7.50
2019-02-15T00:03:52.627Z,8.37
2019-02-15T00:06:19.869Z,7.20
2019-02-15T00:08:47.002Z,6.90
2019-02-15T00:11:14.286Z,6.83
2019-02-15T00:13:41.555Z,7.33
2019-02-15T00:16:08.819Z,8.80
2019-02-15T00:18:48.266Z,8.00
2019-02-15T00:21:26.956Z,7.80
2019-02-15T00:23:54.214Z,7.20
2019-02-15T00:26:21.364Z,8.00
2019-02-15T00:28:48.614Z,7.27
2019-02-15T00:31:18.850Z,6.80
2019-02-15T00:33:45.970Z,6.60
2019-02-15T00:36:13.225Z,7.43
2019-02-15T00:38:40.352Z,7.80
2019-02-15T00:41:07.632Z,7.57
2019-02-15T00:43:34.900Z,6.57
2019-02-15T00:46:28.077Z,6.97
2019-02-15T00:48:55.825Z,6.63
2019-02-15T00:51:51.506Z,6.90
2019-02-15T00:54:30.073Z,6.73
2019-02-15T00:57:15.389Z,5.87
2019-02-15T01:00:17.013Z,6.47
2019-02-15T01:02:51.039Z,6.97
2019-02-15T01:05:43.845Z,6.13
2019-02-15T01:08:18.794Z,6.63
2019-02-15T01:11:08.160Z,6.43
2019-02-15T01:13:35.301Z,6.07
2019-02-15T01:16:02.570Z,7.63
2019-02-15T01:18:29.767Z,6.73
2019-02-15T01:20:57.044Z,7.03
2019-02-15T01:23:24.300Z,6.33
2019-02-15T01:26:04.057Z,6.43
2019-02-15T01:28:43.534Z,6.83
2019-02-15T01:31:41.648Z,7.10
2019-02-15T01:34:26.615Z,6.60
2019-02-15T01:36:58.934Z,5.63
2019-02-15T01:39:54.891Z,6.77
2019-02-15T01:42:38.306Z,6.47
2019-02-15T01:45:37.353Z,5.93
2019-02-15T01:48:04.585Z,6.23
2019-02-15T01:50:31.813Z,6.43
2019-02-15T01:52:59.086Z,6.13
2019-02-15T01:55:26.261Z,6.70
2019-02-15T01:57:53.565Z,6.20
2019-02-15T02:00:22.999Z,5.93
2019-02-15T02:02:50.140Z,6.40
2019-02-15T02:05:17.414Z,5.57
2019-02-15T02:07:44.553Z,5.27
2019-02-15T02:10:11.872Z,5.17
2019-02-15T02:12:39.001Z,5.87
2019-02-15T02:15:07.562Z,6.00
2019-02-15T02:17:34.902Z,5.80
2019-02-15T02:20:02.661Z,5.63
2019-02-15T02:22:29.909Z,6.23
2019-02-15T02:24:57.143Z,5.97
2019-02-15T02:27:24.516Z,5.93
2019-02-15T02:29:51.646Z,5.97
2019-02-15T02:32:18.910Z,6.03
2019-02-15T02:34:46.131Z,5.97
2019-02-15T02:37:13.292Z,6.47
2019-02-15T02:39:40.415Z,5.90
2019-02-15T02:42:07.558Z,6.03
2019-02-15T02:44:34.674Z,6.13
2019-02-15T02:47:01.954Z,6.13
2019-02-15T02:49:29.090Z,5.43
2019-02-15T02:51:56.217Z,5.43
2019-02-15T02:54:23.486Z,5.53
2019-02-15T02:56:50.755Z,5.77
2019-02-15T02:59:18.009Z,5.80
2019-02-15T03:01:45.348Z,5.27
2019-02-15T03:04:12.635Z,5.17
2019-02-15T03:06:39.934Z,4.93
2019-02-15T03:09:08.938Z,5.63
2019-02-15T03:11:36.374Z,5.93
2019-02-15T03:14:11.171Z,5.83
2019-02-15T03:16:32.614Z,5.33
2019-02-15T03:18:59.725Z,5.83
2019-02-15T03:21:26.993Z,5.13
2019-02-15T03:23:54.237Z,6.40
2019-02-15T03:26:21.377Z,4.77
2019-02-15T03:28:48.617Z,4.97
2019-02-15T03:31:15.880Z,5.47
2019-02-15T03:33:43.054Z,5.47
2019-02-15T03:36:15.293Z,5.60
2019-02-15T03:38:53.134Z,5.23
2019-02-15T03:41:31.513Z,5.60
2019-02-15T03:43:58.777Z,4.53
2019-02-15T03:46:26.029Z,5.73
2019-02-15T03:48:53.260Z,5.10
2019-02-15T03:51:20.507Z,5.47
2019-02-15T03:53:47.642Z,5.63
2019-02-15T03:56:14.924Z,5.57
2019-02-15T03:58:42.244Z,6.07
2019-02-15T04:01:09.376Z,5.93
2019-02-15T04:03:36.676Z,6.40
2019-02-15T04:06:04.041Z,5.97
2019-02-15T04:08:31.296Z,5.60
2019-02-15T04:10:58.485Z,7.73
2019-02-15T04:13:25.827Z,8.37
2019-02-15T04:15:53.080Z,7.27
2019-02-15T04:18:20.322Z,9.87
2019-02-15T04:20:47.700Z,11.60
2019-02-15T04:23:14.940Z,11.00
2019-02-15T04:25:42.192Z,11.30
2019-02-15T04:28:09.402Z,13.00
2019-02-15T04:30:36.640Z,11.30
2019-02-15T04:33:03.881Z,12.90
2019-02-15T04:35:31.157Z,12.87
2019-02-15T04:37:58.311Z,12.07
2019-02-15T04:40:25.655Z,12.67
2019-02-15T04:42:52.885Z,13.37
2019-02-15T04:45:20.145Z,15.00
2019-02-15T04:47:47.461Z,13.27
2019-02-15T04:50:14.726Z,14.03
2019-02-15T04:52:41.900Z,12.47
2019-02-15T04:55:09.143Z,14.23
2019-02-15T04:57:36.286Z,15.23
2019-02-15T05:00:04.269Z,13.23
2019-02-15T05:02:31.475Z,13.17
2019-02-15T05:04:58.739Z,14.23
2019-02-15T05:07:25.998Z,16.13
2019-02-15T05:09:53.163Z,15.63
2019-02-15T05:12:20.432Z,17.37
2019-02-15T05:14:53.198Z,16.97
2019-02-15T05:17:16.732Z,16.23
2019-02-15T05:19:44.106Z,17.10
2019-02-15T05:22:11.325Z,16.87
2019-02-15T05:24:38.606Z,16.17
2019-02-15T05:27:05.877Z,15.40
2019-02-15T05:29:33.242Z,15.43
2019-02-15T05:32:00.514Z,14.57
2019-02-15T05:34:27.676Z,14.33
2019-02-15T05:36:54.943Z,15.37
2019-02-15T05:39:22.218Z,14.57
2019-02-15T05:41:49.584Z,14.17
2019-02-15T05:44:16.959Z,14.73
2019-02-15T05:46:44.288Z,14.50
2019-02-15T05:49:11.539Z,14.70
2019-02-15T05:51:38.905Z,14.30
2019-02-15T05:54:06.127Z,14.77
2019-02-15T05:56:33.281Z,14.63
2019-02-15T05:59:00.515Z,13.27
2019-02-15T06:01:28.189Z,15.37
2019-02-15T06:03:55.391Z,14.37
2019-02-15T06:06:22.750Z,13.30
2019-02-15T06:08:50.035Z,14.13
2019-02-15T06:11:17.337Z,14.30
2019-02-15T06:13:44.617Z,13.77
2019-02-15T06:16:11.781Z,13.50
2019-02-15T06:18:39.077Z,14.37
2019-02-15T06:21:06.191Z,13.27
2019-02-15T06:23:33.488Z,13.30
2019-02-15T06:26:00.681Z,15.37
2019-02-15T06:28:28.038Z,14.03
2019-02-15T06:30:57.144Z,12.97
2019-02-15T06:33:24.321Z,12.67
2019-02-15T06:35:51.570Z,13.03
2019-02-15T06:38:18.837Z,12.57
2019-02-15T06:40:46.108Z,14.80
2019-02-15T06:43:13.382Z,16.23
2019-02-15T06:45:40.637Z,17.70
2019-02-15T06:48:07.891Z,16.40
2019-02-15T06:50:35.102Z,16.83
2019-02-15T06:53:02.334Z,16.80
2019-02-15T06:55:29.618Z,17.03
2019-02-15T06:57:56.872Z,16.33
2019-02-15T07:01:03.986Z,14.13
2019-02-15T07:03:53.578Z,13.60
2019-02-15T07:06:20.847Z,13.70
2019-02-15T07:08:53.141Z,12.60
2019-02-15T07:11:20.278Z,13.33
2019-02-15T07:13:47.397Z,12.97
2019-02-15T07:16:14.653Z,12.30
2019-02-15T07:18:41.866Z,11.47
2019-02-15T07:21:09.050Z,11.40
2019-02-15T07:23:36.170Z,11.47
2019-02-15T07:26:03.421Z,10.97
2019-02-15T07:28:30.653Z,9.87
2019-02-15T07:30:57.804Z,10.40
2019-02-15T07:33:24.986Z,10.00
2019-02-15T07:35:52.234Z,9.57
2019-02-15T07:38:19.375Z,9.40
2019-02-15T07:40:46.622Z,10.10
2019-02-15T07:43:13.891Z,10.40
2019-02-15T07:45:42.773Z,10.57
2019-02-15T07:48:10.164Z,10.57
2019-02-15T07:50:37.313Z,9.63
2019-02-15T07:53:04.552Z,9.57
2019-02-15T07:55:31.814Z,9.73
2019-02-15T07:57:59.035Z,8.10
2019-02-15T08:00:26.276Z,9.53
2019-02-15T08:02:53.534Z,10.00
2019-02-15T08:05:20.750Z,8.00
2019-02-15T08:07:48.068Z,9.10
2019-02-15T08:10:15.247Z,7.83
2019-02-15T08:12:42.482Z,8.70
2019-02-15T08:15:09.983Z,8.70
2019-02-15T08:17:37.232Z,7.67
2019-02-15T08:20:05.628Z,8.33
2019-02-15T08:22:33.063Z,8.33
2019-02-15T08:25:02.753Z,6.90
2019-02-15T08:27:31.360Z,6.23
2019-02-15T08:29:59.194Z,7.40
2019-02-15T08:32:26.496Z,6.30
2019-02-15T08:34:53.867Z,6.70
2019-02-15T08:37:21.099Z,6.77
2019-02-15T08:39:48.242Z,6.57
2019-02-15T08:42:15.475Z,6.07
2019-02-15T08:44:42.735Z,6.43
2019-02-15T08:47:09.878Z,5.73
2019-02-15T08:49:37.114Z,5.60
2019-02-15T08:52:04.238Z,5.57
2019-02-15T08:54:31.366Z,5.83
2019-02-15T08:56:58.527Z,6.27
2019-02-15T08:59:25.770Z,6.03
2019-02-15T09:02:18.178Z,9.43
2019-02-15T09:04:45.448Z,9.67
2019-02-15T09:07:12.716Z,10.03
2019-02-15T09:09:39.917Z,9.30
2019-02-15T09:12:07.140Z,9.33
2019-02-15T09:14:34.407Z,9.23
2019-02-15T09:17:01.630Z,8.00
2019-02-15T09:19:28.759Z,8.67
2019-02-15T09:21:56.058Z,8.13
2019-02-15T09:24:23.188Z,7.70
2019-02-15T09:26:50.367Z,7.60
2019-02-15T09:29:17.518Z,7.27
2019-02-15T09:31:44.693Z,6.47
2019-02-15T09:34:12.122Z,6.57
2019-02-15T09:36:39.391Z,7.43
2019-02-15T09:39:07.064Z,7.63
2019-02-15T09:41:34.335Z,6.43
2019-02-15T09:44:01.637Z,6.40
2019-02-15T09:46:28.766Z,6.90
2019-02-15T09:48:56.034Z,6.70
2019-02-15T09:51:23.268Z,6.93
2019-02-15T09:53:50.581Z,5.93
2019-02-15T09:56:17.857Z,6.00
2019-02-15T09:58:45.039Z,5.80
2019-02-15T10:01:12.200Z,5.80
2019-02-15T10:03:39.414Z,6.33
2019-02-15T10:06:06.571Z,5.93
2019-02-15T10:08:33.791Z,5.97
2019-02-15T10:11:01.049Z,5.93
2019-02-15T10:13:28.195Z,5.50
2019-02-15T10:15:55.387Z,5.57
2019-02-15T10:18:22.623Z,5.47
2019-02-15T10:20:49.786Z,6.13
2019-02-15T10:23:17.031Z,6.10
2019-02-15T10:25:44.348Z,5.40
2019-02-15T10:28:11.628Z,6.27
2019-02-15T10:30:38.942Z,5.27
2019-02-15T10:33:06.159Z,5.57
2019-02-15T10:35:33.491Z,5.40
2019-02-15T10:38:00.779Z,4.73
2019-02-15T10:40:28.032Z,4.77
2019-02-15T10:42:55.268Z,4.60
2019-02-15T10:45:22.414Z,4.47
2019-02-15T10:47:50.449Z,4.07
2019-02-15T10:50:17.633Z,4.37
2019-02-15T10:52:44.891Z,4.12
2019-02-15T10:55:12.023Z,4.80
2019-02-15T10:57:39.304Z,3.65
2019-02-15T11:00:10.773Z,4.17
2019-02-15T11:02:37.912Z,3.90
2019-02-15T11:05:05.183Z,3.65
2019-02-15T11:07:32.433Z,3.50
2019-02-15T11:09:59.715Z,3.90
2019-02-15T11:12:26.948Z,4.10
2019-02-15T11:14:54.119Z,3.85
2019-02-15T11:17:21.346Z,3.83
2019-02-15T11:19:48.474Z,4.20
2019-02-15T11:22:15.734Z,4.45
2019-02-15T11:24:43.007Z,3.60
2019-02-15T11:27:10.122Z,3.92
2019-02-15T11:29:37.380Z,4.05
2019-02-15T11:32:04.853Z,3.75
2019-02-15T11:34:32.118Z,4.10
2019-02-15T11:36:59.278Z,4.28
2019-02-15T11:39:26.483Z,3.70
2019-02-15T11:41:53.652Z,3.90
2019-02-15T11:44:20.917Z,4.10
2019-02-15T11:46:56.594Z,3.98
2019-02-15T11:49:17.198Z,3.83
2019-02-15T11:51:44.480Z,3.35
2019-02-15T11:54:11.823Z,3.62
2019-02-15T11:56:39.074Z,3.70
2019-02-15T11:59:06.407Z,3.90
2019-02-15T12:01:33.672Z,3.87
2019-02-15T12:04:00.911Z,3.98
2019-02-15T12:06:28.171Z,3.80
2019-02-15T12:08:55.393Z,3.60
2019-02-15T12:11:22.777Z,3.83
2019-02-15T12:13:49.929Z,3.75
2019-02-15T12:16:17.181Z,3.45
2019-02-15T12:18:44.438Z,3.33
2019-02-15T12:21:11.711Z,3.75
2019-02-15T12:23:38.974Z,3.30
2019-02-15T12:26:06.142Z,3.05
2019-02-15T12:28:33.391Z,3.10
2019-02-15T12:31:00.655Z,2.90
2019-02-15T12:33:27.847Z,3.15
2019-02-15T12:35:55.125Z,3.62
2019-02-15T12:38:22.373Z,3.40
2019-02-15T12:40:49.531Z,3.50
2019-02-15T12:43:16.793Z,4.15
2019-02-15T12:45:44.025Z,4.78
2019-02-15T12:48:11.272Z,4.90
2019-02-15T12:50:38.568Z,4.83
2019-02-15T12:53:05.729Z,5.67
2019-02-15T12:55:32.994Z,5.65
2019-02-15T12:58:00.172Z,5.35
2019-02-15T13:00:27.428Z,5.85
2019-02-15T13:02:54.710Z,6.80
2019-02-15T13:05:21.970Z,5.17
2019-02-15T13:07:57.407Z,6.15
2019-02-15T13:10:28.343Z,5.05
2019-02-15T13:12:55.603Z,6.53
2019-02-15T13:15:22.822Z,5.03
2019-02-15T13:17:50.070Z,5.30
2019-02-15T13:20:17.284Z,4.40
2019-02-15T13:22:44.412Z,3.87
2019-02-15T13:25:11.767Z,4.95
2019-02-15T13:27:38.996Z,4.37
2019-02-15T13:30:07.534Z,4.33
2019-02-15T13:32:34.693Z,4.55
2019-02-15T13:35:01.905Z,5.28
2019-02-15T13:37:29.165Z,4.70
2019-02-15T13:39:56.421Z,5.00
2019-02-15T13:42:23.814Z,5.22
2019-02-15T13:44:51.159Z,5.50
2019-02-15T13:47:18.341Z,5.87
2019-02-15T13:49:45.576Z,6.08
2019-02-15T13:52:12.820Z,5.90
2019-02-15T13:54:40.002Z,6.17
2019-02-15T13:57:07.355Z,6.30
2019-02-15T13:59:34.656Z,6.27
2019-02-15T14:02:01.906Z,5.50
2019-02-15T14:04:29.178Z,5.70
2019-02-15T14:06:56.743Z,6.33
2019-02-15T14:09:24.058Z,6.90
2019-02-15T14:11:51.366Z,6.73
2019-02-15T14:14:18.639Z,6.33
2019-02-15T14:16:45.991Z,5.27
2019-02-15T14:19:13.216Z,5.70
2019-02-15T14:21:44.427Z,6.20
2019-02-15T14:24:09.626Z,5.83
2019-02-15T14:26:36.898Z,5.53
2019-02-15T14:29:04.148Z,5.97
2019-02-15T14:31:31.422Z,5.63
2019-02-15T14:33:58.773Z,6.33
2019-02-15T14:36:26.200Z,5.90
2019-02-15T14:38:53.355Z,6.87
2019-02-15T14:41:20.543Z,6.60
2019-02-15T14:43:47.773Z,6.60
2019-02-15T14:46:15.025Z,7.23
2019-02-15T14:48:42.318Z,6.20
2019-02-15T14:51:09.635Z,6.57
2019-02-15T14:53:36.898Z,6.50
2019-02-15T14:56:04.117Z,6.80
2019-02-15T14:58:31.394Z,7.47
2019-02-15T15:00:58.728Z,7.33
2019-02-15T15:03:25.880Z,7.63
2019-02-15T15:05:54.932Z,6.90
2019-02-15T15:08:22.256Z,6.40
2019-02-15T15:10:49.510Z,6.73
2019-02-15T15:13:16.868Z,7.33
2019-02-15T15:15:44.194Z,6.53
2019-02-15T15:18:13.426Z,6.33
2019-02-15T15:20:40.610Z,6.40
2019-02-15T15:23:07.922Z,4.00
2019-02-15T15:25:35.142Z,3.20
2019-02-15T15:28:02.275Z,3.20
2019-02-15T15:30:29.543Z,3.67
2019-02-15T15:32:56.777Z,3.83
2019-02-15T15:35:24.015Z,3.80
2019-02-15T15:37:51.274Z,3.40
2019-02-15T15:40:18.396Z,5.53
2019-02-15T15:42:45.645Z,4.70
2019-02-15T15:45:12.773Z,5.93
2019-02-15T15:47:39.971Z,4.70
2019-02-15T15:50:07.970Z,4.67
2019-02-15T15:52:35.252Z,4.80
2019-02-15T15:55:02.427Z,5.40
2019-02-15T15:57:29.715Z,4.40
2019-02-15T15:59:56.849Z,4.50
2019-02-15T16:02:24.238Z,4.50
2019-02-15T16:04:51.575Z,5.07
2019-02-15T16:07:18.695Z,4.40
2019-02-15T16:09:45.953Z,4.97
2019-02-15T16:12:13.182Z,4.43
2019-02-15T16:14:40.445Z,4.97
2019-02-15T16:17:07.719Z,4.77
2019-02-15T16:19:40.364Z,5.20
2019-02-15T16:22:04.034Z,5.67
2019-02-15T16:24:31.162Z,5.10
2019-02-15T16:26:58.415Z,5.80
2019-02-15T16:29:25.868Z,5.73
2019-02-15T16:31:53.150Z,6.27
2019-02-15T16:34:20.334Z,5.97
2019-02-15T16:36:47.611Z,6.00
2019-02-15T16:39:14.740Z,5.73
2019-02-15T16:41:42.010Z,5.97
2019-02-15T16:44:09.262Z,5.93
2019-02-15T16:46:36.402Z,6.83
2019-02-15T16:49:03.645Z,5.83
2019-02-15T16:51:30.911Z,5.67
2019-02-15T16:53:58.218Z,5.90
2019-02-15T16:56:25.500Z,6.27
2019-02-15T16:58:52.732Z,6.50
2019-02-15T17:01:19.989Z,6.00
2019-02-15T17:03:47.123Z,6.40
2019-02-15T17:06:14.494Z,9.63
2019-02-15T17:08:41.627Z,9.63
2019-02-15T17:11:08.784Z,8.93
2019-02-15T17:13:36.045Z,8.57
2019-02-15T17:16:03.545Z,8.10
2019-02-15T17:18:30.799Z,7.40
2019-02-15T17:20:58.047Z,8.37
2019-02-15T17:23:25.340Z,8.17
2019-02-15T17:25:52.502Z,8.10
2019-02-15T17:28:19.863Z,8.70
2019-02-15T17:30:47.011Z,7.77
2019-02-15T17:33:14.320Z,8.40
2019-02-15T17:35:41.594Z,9.83
2019-02-15T17:38:09.250Z,9.57
2019-02-15T17:40:36.538Z,9.20
2019-02-15T17:43:03.773Z,10.07
2019-02-15T17:45:31.063Z,8.97
2019-02-15T17:47:58.314Z,8.33
2019-02-15T17:50:25.615Z,8.30
2019-02-15T17:52:52.952Z,7.80
2019-02-15T17:55:20.229Z,7.53
2019-02-15T17:57:47.583Z,8.63
2019-02-15T18:00:16.956Z,7.83
2019-02-15T18:02:44.282Z,6.80
2019-02-15T18:05:17.394Z,7.00
2019-02-15T18:07:45.979Z,8.43
2019-02-15T18:10:13.239Z,8.73
2019-02-15T18:12:40.502Z,8.97
2019-02-15T18:15:07.747Z,11.30
2019-02-15T18:17:34.967Z,9.30
2019-02-15T18:20:02.402Z,8.27
2019-02-15T18:22:29.852Z,8.07
2019-02-15T18:24:57.171Z,7.40
2019-02-15T18:27:24.409Z,7.30
2019-02-15T18:29:51.770Z,7.40
2019-02-15T18:32:19.053Z,7.20
2019-02-15T18:34:46.331Z,7.43
2019-02-15T18:37:13.720Z,8.13
2019-02-15T18:39:41.161Z,8.63
2019-02-15T18:42:08.373Z,8.63
2019-02-15T18:44:35.514Z,9.13
2019-02-15T18:47:03.238Z,8.40
2019-02-15T18:49:30.491Z,16.90
2019-02-15T18:51:57.759Z,9.00
2019-02-15T18:54:25.010Z,9.37
2019-02-15T18:56:52.290Z,9.87
2019-02-15T18:59:19.533Z,9.90
2019-02-15T19:01:46.823Z,10.40
2019-02-15T19:04:14.065Z,8.73
2019-02-15T19:06:41.205Z,8.07
2019-02-15T19:09:08.533Z,9.13
2019-02-15T19:11:35.804Z,9.80
2019-02-15T19:14:03.094Z,10.97
2019-02-15T19:16:30.482Z,10.13
2019-02-15T19:18:58.626Z,12.43
2019-02-15T19:21:25.781Z,11.70
2019-02-15T19:23:53.054Z,11.10
2019-02-15T19:26:20.497Z,10.63
2019-02-15T19:28:47.971Z,10.73
2019-02-15T19:31:15.383Z,11.40
2019-02-15T19:33:42.603Z,12.83
2019-02-15T19:36:09.868Z,11.13
2019-02-15T19:38:37.207Z,10.43
2019-02-15T19:41:04.531Z,10.63
2019-02-15T19:43:32.068Z,9.97
2019-02-15T19:45:59.455Z,8.67
2019-02-15T19:48:26.790Z,10.40
2019-02-15T19:50:54.074Z,10.07
2019-02-15T19:53:21.215Z,10.03
2019-02-15T19:55:48.513Z,13.43
2019-02-15T19:58:15.786Z,11.30
2019-02-15T20:00:43.072Z,11.87
2019-02-15T20:03:10.344Z,11.40
2019-02-15T20:05:37.457Z,12.87
2019-02-15T20:08:04.753Z,13.37
2019-02-15T20:10:32.006Z,11.63
2019-02-15T20:13:00.783Z,13.20
2019-02-15T20:15:28.343Z,12.13
2019-02-15T20:17:55.617Z,11.93
2019-02-15T20:20:22.950Z,12.63
2019-02-15T20:22:50.206Z,12.80
2019-02-15T20:25:17.642Z,13.20
2019-02-15T20:27:45.040Z,12.10
2019-02-15T20:30:14.419Z,12.33
2019-02-15T20:32:41.697Z,12.20
2019-02-15T20:35:09.684Z,14.13
2019-02-15T20:37:37.092Z,14.17
2019-02-15T20:40:05.428Z,15.57
2019-02-15T20:42:32.756Z,15.67
2019-02-15T20:45:00.041Z,14.50
2019-02-15T20:47:27.314Z,14.17
2019-02-15T20:49:58.143Z,13.97
2019-02-15T20:52:25.515Z,15.50
2019-02-15T20:54:52.786Z,14.40
2019-02-15T20:57:19.908Z,15.13
2019-02-15T20:59:47.242Z,15.07
2019-02-15T21:02:14.511Z,14.63
2019-02-15T21:04:41.803Z,15.03
2019-02-15T21:07:08.951Z,16.47
2019-02-15T21:09:36.228Z,15.13
2019-02-15T21:12:03.454Z,14.37
2019-02-15T21:14:31.932Z,13.77
2019-02-15T21:16:59.349Z,12.03
2019-02-15T21:19:27.103Z,10.73
2019-02-15T21:21:54.398Z,9.47
2019-02-15T21:24:21.838Z,9.77
2019-02-15T21:26:49.007Z,10.60
2019-02-15T21:29:16.131Z,10.20
2019-02-15T21:31:43.425Z,9.40
2019-02-15T21:34:10.709Z,10.83
2019-02-15T21:36:37.995Z,10.17
2019-02-15T21:39:07.001Z,10.90
2019-02-15T21:41:34.295Z,11.90
2019-02-15T21:44:01.619Z,10.97
2019-02-15T21:46:28.933Z,10.30
2019-02-15T21:48:56.217Z,11.53
2019-02-15T21:51:23.478Z,9.83
2019-02-15T21:53:50.754Z,12.27
2019-02-15T21:56:18.046Z,12.30
2019-02-15T21:58:45.311Z,11.60
2019-02-15T22:01:12.450Z,11.77
2019-02-15T22:03:39.768Z,12.27
2019-02-15T22:06:07.035Z,13.00
2019-02-15T22:08:34.349Z,15.07
2019-02-15T22:11:01.791Z,13.07
2019-02-15T22:13:29.450Z,13.83
2019-02-15T22:15:56.749Z,14.27
2019-02-15T22:18:24.061Z,13.20
2019-02-15T22:20:51.365Z,13.40
2019-02-15T22:23:18.644Z,13.00
2019-02-15T22:25:45.961Z,15.17
2019-02-15T22:28:13.164Z,13.80
2019-02-15T22:30:40.511Z,14.73
2019-02-15T22:33:07.763Z,15.87
2019-02-15T22:35:35.145Z,17.03
2019-02-15T22:38:02.422Z,14.73
2019-02-15T22:40:31.316Z,14.53
2019-02-15T22:43:01.395Z,15.90
2019-02-15T22:45:28.690Z,14.00
2019-02-15T22:47:56.077Z,15.00
2019-02-15T22:50:23.224Z,13.67
2019-02-15T22:52:50.397Z,14.70
2019-02-15T22:55:17.584Z,15.47
2019-02-15T22:57:44.875Z,16.27
2019-02-15T23:00:21.004Z,18.20
2019-02-15T23:02:48.281Z,17.70
2019-02-15T23:05:15.559Z,17.10
2019-02-15T23:07:42.851Z,17.13
2019-02-15T23:10:10.856Z,17.37
2019-02-15T23:12:38.221Z,18.27
2019-02-15T23:15:05.527Z,18.93
2019-02-15T23:17:32.823Z,17.13
2019-02-15T23:20:00.023Z,17.43
2019-02-15T23:22:27.268Z,18.40
2019-02-15T23:24:54.527Z,16.87
2019-02-15T23:27:21.840Z,17.30
2019-02-15T23:29:49.180Z,16.80
2019-02-15T23:32:16.486Z,15.93
2019-02-15T23:34:43.759Z,14.87
2019-02-15T23:37:11.046Z,14.77
2019-02-15T23:39:38.355Z,14.13
2019-02-15T23:42:05.659Z,13.83
2019-02-15T23:44:33.155Z,13.77
2019-02-15T23:47:00.288Z,12.90
2019-02-15T23:49:27.571Z,13.63
2019-02-15T23:51:56.691Z,11.70
2019-02-15T23:54:23.987Z,12.50
2019-02-15T23:56:51.284Z,13.10
2019-02-15T23:59:18.654Z,11.97
